createdAt,value
2023-01-03T00:00:59.973Z,100601.84
2023-01-03T00:03:32.764Z,100596.58
2023-01-03T00:06:05.484Z,100603.58
2023-01-03T00:08:39.398Z,100603.79
2023-01-03T00:11:19.341Z,100604.48
2023-01-03T00:13:52.020Z,100609.00
2023-01-03T00:16:26.511Z,100608.27
2023-01-03T00:18:59.121Z,100601.52
2023-01-03T00:21:32.096Z,100597.73
2023-01-03T00:24:05.013Z,100595.80
2023-01-03T00:26:38.414Z,100594.05
2023-01-03T00:29:12.521Z,100590.88
2023-01-03T00:31:45.228Z,100591.75
2023-01-03T00:34:17.657Z,100584.38
2023-01-03T00:36:49.956Z,100585.36
2023-01-03T00:39:22.547Z,100580.84
2023-01-03T00:41:56.224Z,100574.82
2023-01-03T00:44:29.090Z,100577.16
2023-01-03T00:47:01.780Z,100571.75
2023-01-03T00:49:35.702Z,100564.85
2023-01-03T00:52:08.088Z,100564.30
2023-01-03T00:54:40.838Z,100562.42
2023-01-03T00:57:14.879Z,100555.12
2023-01-03T00:59:47.739Z,100551.28
2023-01-03T01:02:20.874Z,100553.83
2023-01-03T01:04:54.317Z,100555.28
2023-01-03T01:07:27.394Z,100551.45
2023-01-03T01:10:00.291Z,100547.50
2023-01-03T01:12:33.167Z,100547.13
2023-01-03T01:15:07.151Z,100538.16
2023-01-03T01:17:40.397Z,100527.26
2023-01-03T01:20:13.952Z,100523.31
2023-01-03T01:22:47.351Z,100515.11
2023-01-03T01:25:20.173Z,100516.62
2023-01-03T01:27:52.955Z,100511.94
2023-01-03T01:30:25.670Z,100511.17
2023-01-03T01:32:58.829Z,100514.85
2023-01-03T01:35:31.456Z,100513.40
2023-01-03T01:38:03.918Z,100508.81
2023-01-03T01:40:37.004Z,100500.91
2023-01-03T01:43:41.235Z,100487.45
2023-01-03T01:46:32.610Z,100485.30
2023-01-03T01:49:06.552Z,100493.44
2023-01-03T01:51:40.589Z,100484.90
2023-01-03T01:54:13.267Z,100480.19
2023-01-03T01:56:49.305Z,100480.11
2023-01-03T01:59:22.147Z,100473.42
2023-01-03T02:01:55.614Z,100459.86
2023-01-03T02:04:32.616Z,100461.23
2023-01-03T02:07:06.861Z,100447.78
2023-01-03T02:09:42.137Z,100455.41
2023-01-03T02:13:07.360Z,100454.58
2023-01-03T02:16:07.159Z,100453.37
2023-01-03T02:19:07.335Z,100448.32
2023-01-03T02:21:47.851Z,100447.37
2023-01-03T02:24:58.222Z,100441.09
2023-01-03T02:27:57.745Z,100432.86
2023-01-03T02:30:58.087Z,100430.05
2023-01-03T02:33:52.831Z,100427.59
2023-01-03T02:36:53.095Z,100415.19
2023-01-03T02:39:51.564Z,100416.67
2023-01-03T02:42:57.897Z,100410.55
2023-01-03T02:45:58.076Z,100409.95
2023-01-03T02:48:49.982Z,100400.97
2023-01-03T02:51:31.237Z,100408.72
2023-01-03T02:54:05.063Z,100413.84
2023-01-03T02:56:55.126Z,100402.78
2023-01-03T02:59:41.862Z,100408.20
2023-01-03T03:02:14.888Z,100406.37
2023-01-03T03:04:48.114Z,100409.80
2023-01-03T03:07:28.018Z,100409.09
2023-01-03T03:10:18.886Z,100402.56
2023-01-03T03:13:12.185Z,100402.45
2023-01-03T03:16:15.505Z,100401.49
2023-01-03T03:19:02.466Z,100397.44
2023-01-03T03:21:54.430Z,100400.63
2023-01-03T03:24:51.475Z,100399.41
2023-01-03T03:27:42.469Z,100387.23
2023-01-03T03:30:18.295Z,100380.98
2023-01-03T03:32:51.770Z,100385.40
2023-01-03T03:35:27.053Z,100379.63
2023-01-03T03:38:00.007Z,100369.29
2023-01-03T03:40:53.924Z,100369.05
2023-01-03T03:43:51.015Z,100363.63
2023-01-03T03:46:28.379Z,100364.83
2023-01-03T03:49:25.748Z,100372.70
2023-01-03T03:51:59.226Z,100365.92
2023-01-03T03:54:33.607Z,100370.81
2023-01-03T03:57:11.980Z,100365.64
2023-01-03T03:59:46.561Z,100364.16
2023-01-03T04:02:20.532Z,100362.68
2023-01-03T04:04:58.029Z,100364.27
2023-01-03T04:07:31.049Z,100354.55
2023-01-03T04:10:04.655Z,100349.02
2023-01-03T04:12:37.825Z,100349.14
2023-01-03T04:15:12.306Z,100349.37
2023-01-03T04:17:45.389Z,100348.84
2023-01-03T04:20:19.168Z,100357.06
2023-01-03T04:22:52.682Z,100358.40
2023-01-03T04:25:25.593Z,100352.43
2023-01-03T04:27:58.822Z,100352.41
2023-01-03T04:30:31.236Z,100355.45
2023-01-03T04:33:05.607Z,100345.14
2023-01-03T04:35:38.459Z,100350.14
2023-01-03T04:38:11.277Z,100348.06
2023-01-03T04:40:43.735Z,100344.12
2023-01-03T04:43:33.974Z,100341.55
2023-01-03T04:46:07.009Z,100339.80
2023-01-03T04:48:39.462Z,100340.67
2023-01-03T04:51:11.907Z,100334.39
2023-01-03T04:53:44.377Z,100335.86
2023-01-03T04:56:16.708Z,100328.63
2023-01-03T04:58:49.233Z,100328.74
2023-01-03T05:01:21.716Z,100334.14
2023-01-03T05:04:00.141Z,100324.69
2023-01-03T05:06:32.943Z,100319.06
2023-01-03T05:09:07.165Z,100312.91
2023-01-03T05:11:39.953Z,100306.55
2023-01-03T05:14:14.690Z,100310.48
2023-01-03T05:16:46.840Z,100311.32
2023-01-03T05:19:19.715Z,100305.67
2023-01-03T05:22:10.256Z,100311.66
2023-01-03T05:25:00.391Z,100313.02
2023-01-03T05:27:33.012Z,100311.30
2023-01-03T05:30:06.755Z,100315.47
2023-01-03T05:32:39.418Z,100310.69
2023-01-03T05:35:12.219Z,100305.52
2023-01-03T05:37:44.735Z,100306.98
2023-01-03T05:40:17.639Z,100311.26
2023-01-03T05:42:50.667Z,100311.84
2023-01-03T05:45:24.682Z,100317.61
2023-01-03T05:47:58.934Z,100314.44
2023-01-03T05:50:31.936Z,100315.08
2023-01-03T05:53:04.869Z,100318.50
2023-01-03T05:55:40.679Z,100308.58
2023-01-03T05:58:12.978Z,100309.70
2023-01-03T06:00:45.231Z,100299.78
2023-01-03T06:03:19.423Z,100307.73
2023-01-03T06:05:52.063Z,100313.19
2023-01-03T06:08:24.601Z,100317.84
2023-01-03T06:10:57.665Z,100315.03
2023-01-03T06:13:30.552Z,100312.73
2023-01-03T06:16:24.913Z,100312.58
2023-01-03T06:18:57.670Z,100311.00
2023-01-03T06:21:30.450Z,100313.36
2023-01-03T06:24:02.873Z,100305.25
2023-01-03T06:26:35.432Z,100311.77
2023-01-03T06:29:09.239Z,100311.91
2023-01-03T06:31:41.923Z,100316.13
2023-01-03T06:34:14.327Z,100316.77
2023-01-03T06:36:46.806Z,100313.23
2023-01-03T06:39:19.341Z,100313.00
2023-01-03T06:41:52.107Z,100322.59
2023-01-03T06:44:24.747Z,100333.53
2023-01-03T06:47:14.784Z,100328.53
2023-01-03T06:50:05.131Z,100320.08
2023-01-03T06:52:55.749Z,100313.56
2023-01-03T06:55:28.159Z,100305.61
2023-01-03T06:58:00.561Z,100297.50
2023-01-03T07:00:33.459Z,100324.81
2023-01-03T07:03:11.214Z,100325.66
2023-01-03T07:05:40.757Z,100335.23
2023-01-03T07:08:13.918Z,100323.64
2023-01-03T07:10:47.292Z,100328.17
2023-01-03T07:13:38.088Z,100334.67
2023-01-03T07:16:16.727Z,100336.39
2023-01-03T07:18:54.998Z,100345.01
2023-01-03T07:21:27.209Z,100344.38
2023-01-03T07:24:02.021Z,100342.23
2023-01-03T07:26:34.917Z,100346.99
2023-01-03T07:29:10.078Z,100346.89
2023-01-03T07:31:42.976Z,100354.82
2023-01-03T07:34:15.680Z,100356.69
2023-01-03T07:36:48.595Z,100354.72
2023-01-03T07:39:21.073Z,100358.41
2023-01-03T07:42:11.752Z,100373.33
2023-01-03T07:44:44.763Z,100374.17
2023-01-03T07:47:17.207Z,100367.69
2023-01-03T07:49:49.859Z,100374.16
2023-01-03T07:52:22.587Z,100368.01
2023-01-03T07:54:55.205Z,100363.05
2023-01-03T07:57:27.967Z,100365.84
2023-01-03T08:00:01.549Z,100358.02
2023-01-03T08:02:38.025Z,100362.42
2023-01-03T08:05:10.984Z,100362.55
2023-01-03T08:07:44.087Z,100362.39
2023-01-03T08:10:36.770Z,100362.84
2023-01-03T08:13:20.079Z,100362.01
2023-01-03T08:15:57.270Z,100358.29
2023-01-03T08:18:30.250Z,100373.45
2023-01-03T08:21:02.908Z,100366.75
2023-01-03T08:23:35.605Z,100375.79
2023-01-03T08:26:14.501Z,100376.88
2023-01-03T08:28:47.255Z,100379.42
2023-01-03T08:31:24.584Z,100376.08
2023-01-03T08:34:00.593Z,100369.30
2023-01-03T08:36:43.908Z,100361.72
2023-01-03T08:39:22.902Z,100367.50
2023-01-03T08:42:00.343Z,100360.98
2023-01-03T08:44:32.989Z,100367.05
2023-01-03T08:47:08.151Z,100374.41
2023-01-03T08:49:40.631Z,100372.17
2023-01-03T08:52:13.106Z,100360.94
2023-01-03T08:54:46.251Z,100363.88
2023-01-03T08:57:20.312Z,100356.28
2023-01-03T08:59:52.765Z,100362.14
2023-01-03T09:02:26.180Z,100360.32
2023-01-03T09:04:58.840Z,100364.34
2023-01-03T09:07:31.545Z,100355.83
2023-01-03T09:10:04.051Z,100355.67
2023-01-03T09:12:37.330Z,100341.84
2023-01-03T09:15:10.549Z,100335.58
2023-01-03T09:17:45.578Z,100355.92
2023-01-03T09:20:19.561Z,100351.23
2023-01-03T09:22:52.631Z,100343.14
2023-01-03T09:25:25.193Z,100350.16
2023-01-03T09:27:57.717Z,100348.28
2023-01-03T09:30:30.766Z,100347.31
2023-01-03T09:33:04.992Z,100342.23
2023-01-03T09:35:38.372Z,100333.78
2023-01-03T09:38:11.756Z,100335.30
2023-01-03T09:40:46.047Z,100326.74
2023-01-03T09:43:25.685Z,100327.26
2023-01-03T09:46:01.335Z,100343.36
2023-01-03T09:48:46.210Z,100330.81
2023-01-03T09:51:54.093Z,100331.13
2023-01-03T09:54:53.265Z,100330.61
2023-01-03T09:57:47.061Z,100323.59
2023-01-03T10:00:51.208Z,100323.88
2023-01-03T10:03:59.188Z,100327.22
2023-01-03T10:06:39.424Z,100313.41
2023-01-03T10:09:45.662Z,100311.02
2023-01-03T10:12:59.232Z,100311.64
2023-01-03T10:16:28.283Z,100307.12
2023-01-03T10:19:23.927Z,100305.72
2023-01-03T10:22:04.384Z,100309.08
2023-01-03T10:25:08.751Z,100319.55
2023-01-03T10:28:05.137Z,100322.63
2023-01-03T10:31:13.231Z,100322.98
2023-01-03T10:33:47.984Z,100325.63
2023-01-03T10:36:42.377Z,100330.86
2023-01-03T10:39:15.160Z,100342.20
2023-01-03T10:41:49.084Z,100346.91
2023-01-03T10:44:33.304Z,100344.92
2023-01-03T10:47:14.602Z,100354.53
2023-01-03T10:49:48.164Z,100356.91
2023-01-03T10:52:23.132Z,100360.19
2023-01-03T10:54:59.503Z,100362.96
2023-01-03T10:57:49.103Z,100365.36
2023-01-03T11:00:37.232Z,100362.76
2023-01-03T11:03:19.546Z,100372.41
2023-01-03T11:06:05.704Z,100360.25
2023-01-03T11:08:49.257Z,100375.19
2023-01-03T11:11:36.976Z,100369.73
2023-01-03T11:14:23.710Z,100363.71
2023-01-03T11:17:02.479Z,100374.12
2023-01-03T11:19:35.836Z,100369.98
2023-01-03T11:22:38.209Z,100375.03
2023-01-03T11:25:23.729Z,100381.84
2023-01-03T11:28:26.935Z,100377.75
2023-01-03T11:31:12.553Z,100382.82
2023-01-03T11:33:50.304Z,100375.81
2023-01-03T11:36:39.715Z,100384.40
2023-01-03T11:39:38.297Z,100387.28
2023-01-03T11:42:41.869Z,100389.84
2023-01-03T11:45:31.186Z,100385.49
2023-01-03T11:48:45.427Z,100395.79
2023-01-03T11:51:28.621Z,100398.80
2023-01-03T11:54:36.420Z,100403.81
2023-01-03T11:57:31.692Z,100400.75
2023-01-03T12:00:39.428Z,100397.64
2023-01-03T12:03:36.576Z,100398.06
2023-01-03T12:06:28.547Z,100408.31
2023-01-03T12:09:08.144Z,100395.34
2023-01-03T12:11:50.302Z,100387.53
2023-01-03T12:14:51.114Z,100389.17
2023-01-03T12:17:40.333Z,100377.46
2023-01-03T12:20:26.481Z,100380.39
2023-01-03T12:23:30.440Z,100376.77
2023-01-03T12:28:56.091Z,100384.19
2023-01-03T12:31:42.643Z,100383.11
2023-01-03T12:34:50.402Z,100382.27
2023-01-03T12:37:30.530Z,100386.34
2023-01-03T12:40:09.768Z,100386.70
2023-01-03T12:42:53.972Z,100381.61
2023-01-03T12:45:57.236Z,100382.27
2023-01-03T12:48:40.533Z,100386.00
2023-01-03T12:51:14.385Z,100396.56
2023-01-03T12:53:51.839Z,100397.78
2023-01-03T12:56:57.961Z,100403.47
2023-01-03T12:59:47.112Z,100402.11
2023-01-03T13:02:36.230Z,100413.20
2023-01-03T13:05:29.626Z,100409.33
2023-01-03T13:08:27.784Z,100417.84
2023-01-03T13:11:11.428Z,100423.21
2023-01-03T13:14:12.531Z,100428.44
2023-01-03T13:17:07.214Z,100431.58
2023-01-03T13:19:42.006Z,100436.87
2023-01-03T13:22:56.844Z,100442.41
2023-01-03T13:25:40.767Z,100447.91
2023-01-03T13:28:27.295Z,100449.47
2023-01-03T13:31:23.619Z,100461.36
2023-01-03T13:34:11.666Z,100457.17
2023-01-03T13:37:11.025Z,100458.58
2023-01-03T13:39:47.917Z,100461.49
2023-01-03T13:42:38.485Z,100458.61
2023-01-03T13:45:26.827Z,100467.30
2023-01-03T13:47:59.431Z,100469.55
2023-01-03T13:50:36.921Z,100472.38
2023-01-03T13:53:17.110Z,100483.25
2023-01-03T13:56:12.250Z,100489.34
2023-01-03T13:59:01.939Z,100493.20
2023-01-03T14:01:57.856Z,100495.61
2023-01-03T14:05:13.199Z,100497.62
2023-01-03T14:08:08.482Z,100501.83
2023-01-03T14:11:13.767Z,100513.81
2023-01-03T14:14:09.511Z,100501.98
2023-01-03T14:16:56.413Z,100507.09
2023-01-03T14:19:36.721Z,100523.77
2023-01-03T14:25:01.422Z,100521.59
2023-01-03T14:27:40.745Z,100526.64
2023-01-03T14:30:24.902Z,100521.47
2023-01-03T14:32:57.585Z,100537.03
2023-01-03T14:35:57.969Z,100533.58
2023-01-03T14:38:32.523Z,100534.58
2023-01-03T14:41:05.660Z,100532.87
2023-01-03T14:43:38.615Z,100539.64
2023-01-03T14:46:12.821Z,100538.90
2023-01-03T14:48:47.958Z,100541.26
2023-01-03T14:51:20.461Z,100538.16
2023-01-03T14:53:53.480Z,100541.26
2023-01-03T14:56:26.985Z,100540.26
2023-01-03T14:58:59.909Z,100539.38
2023-01-03T15:01:32.831Z,100548.91
2023-01-03T15:04:06.329Z,100546.09
2023-01-03T15:06:39.945Z,100536.61
2023-01-03T15:09:22.728Z,100548.42
2023-01-03T15:12:02.426Z,100534.05
2023-01-03T15:14:38.319Z,100539.22
2023-01-03T15:17:16.464Z,100537.28
2023-01-03T15:19:54.010Z,100551.69
2023-01-03T15:22:31.706Z,100552.30
2023-01-03T15:25:08.839Z,100553.30
2023-01-03T15:27:45.415Z,100560.33
2023-01-03T15:30:23.572Z,100560.81
2023-01-03T15:33:03.078Z,100565.63
2023-01-03T15:35:42.995Z,100566.11
2023-01-03T15:38:22.610Z,100566.86
2023-01-03T15:40:55.076Z,100571.41
2023-01-03T15:46:20.447Z,100566.75
2023-01-03T15:48:56.692Z,100572.78
2023-01-03T15:51:29.209Z,100575.73
2023-01-03T15:54:02.140Z,100583.52
2023-01-03T15:56:36.873Z,100582.41
2023-01-03T15:59:09.504Z,100579.58
2023-01-03T16:01:43.079Z,100585.59
2023-01-03T16:04:16.021Z,100581.66
2023-01-03T16:06:49.531Z,100586.71
2023-01-03T16:09:22.570Z,100587.82
2023-01-03T16:11:58.383Z,100583.76
2023-01-03T16:14:35.844Z,100592.84
2023-01-03T16:17:08.732Z,100599.91
2023-01-03T16:19:41.642Z,100599.87
2023-01-03T16:24:55.836Z,100599.39
2023-01-03T16:27:28.434Z,100594.57
2023-01-03T16:30:00.763Z,100600.20
2023-01-03T16:32:34.686Z,100602.91
2023-01-03T16:35:20.906Z,100602.78
2023-01-03T16:37:53.516Z,100604.26
2023-01-03T16:40:27.632Z,100610.91
2023-01-03T16:43:00.282Z,100606.97
2023-01-03T16:45:33.272Z,100617.64
2023-01-03T16:48:05.972Z,100619.63
2023-01-03T16:50:40.327Z,100605.44
2023-01-03T16:53:21.322Z,100613.45
2023-01-03T16:55:56.554Z,100613.92
2023-01-03T16:58:29.373Z,100620.45
2023-01-03T17:01:02.423Z,100620.45
2023-01-03T17:03:41.303Z,100631.04
2023-01-03T17:06:37.475Z,100627.45
2023-01-03T17:09:08.441Z,100637.52
2023-01-03T17:11:41.870Z,100636.27
2023-01-03T17:14:23.188Z,100643.43
2023-01-03T17:16:58.237Z,100635.42
2023-01-03T17:22:04.978Z,100650.89
2023-01-03T17:24:37.727Z,100643.59
2023-01-03T17:27:19.919Z,100639.27
2023-01-03T17:29:55.388Z,100648.61
2023-01-03T17:32:28.643Z,100650.55
2023-01-03T17:35:02.642Z,100654.08
2023-01-03T17:37:57.977Z,100652.70
2023-01-03T17:40:32.906Z,100662.91
2023-01-03T17:42:59.347Z,100659.66
2023-01-03T17:45:49.914Z,100665.30
2023-01-03T17:48:40.076Z,100660.11
2023-01-03T17:51:12.768Z,100664.02
2023-01-03T17:53:45.515Z,100662.16
2023-01-03T17:56:19.844Z,100663.20
2023-01-03T17:58:56.290Z,100659.98
2023-01-03T18:01:26.693Z,100665.11
2023-01-03T18:03:59.264Z,100668.42
2023-01-03T18:06:31.645Z,100667.99
2023-01-03T18:09:07.004Z,100678.30
2023-01-03T18:11:40.279Z,100671.97
2023-01-03T18:14:16.635Z,100672.19
2023-01-03T18:16:54.922Z,100677.85
2023-01-03T18:19:23.707Z,100679.93
2023-01-03T18:21:58.565Z,100667.37
2023-01-03T18:24:31.688Z,100672.52
2023-01-03T18:27:04.200Z,100670.50
2023-01-03T18:29:36.929Z,100671.99
2023-01-03T18:32:30.136Z,100673.45
2023-01-03T18:35:02.801Z,100667.28
2023-01-03T18:37:36.522Z,100669.33
2023-01-03T18:40:10.130Z,100671.88
2023-01-03T18:43:00.801Z,100665.89
2023-01-03T18:45:33.223Z,100679.40
2023-01-03T18:48:06.044Z,100674.41
2023-01-03T18:50:39.821Z,100687.70
2023-01-03T18:53:19.327Z,100680.11
2023-01-03T18:55:52.477Z,100673.89
2023-01-03T18:58:54.262Z,100681.33
2023-01-03T19:01:25.595Z,100680.81
2023-01-03T19:03:58.399Z,100681.47
2023-01-03T19:06:33.254Z,100680.22
2023-01-03T19:09:05.517Z,100686.82
2023-01-03T19:11:38.830Z,100675.35
2023-01-03T19:14:11.911Z,100680.59
2023-01-03T19:16:44.540Z,100678.48
2023-01-03T19:19:17.000Z,100679.67
2023-01-03T19:21:49.379Z,100682.88
2023-01-03T19:24:31.928Z,100692.70
2023-01-03T19:27:18.004Z,100683.41
2023-01-03T19:29:52.179Z,100684.28
2023-01-03T19:32:28.126Z,100686.98
2023-01-03T19:35:00.545Z,100679.46
2023-01-03T19:37:33.767Z,100686.42
2023-01-03T19:40:07.348Z,100689.84
2023-01-03T19:42:49.391Z,100692.65
2023-01-03T19:45:37.296Z,100691.98
2023-01-03T19:48:24.229Z,100695.56
2023-01-03T19:50:57.064Z,100696.40
2023-01-03T19:53:29.597Z,100688.65
2023-01-03T19:56:02.149Z,100685.75
2023-01-03T19:58:39.071Z,100687.41
2023-01-03T20:01:16.985Z,100684.34
2023-01-03T20:03:50.616Z,100688.60
2023-01-03T20:06:23.921Z,100687.87
2023-01-03T20:08:56.705Z,100681.22
2023-01-03T20:11:29.929Z,100685.64
2023-01-03T20:14:03.749Z,100683.52
2023-01-03T20:16:36.844Z,100686.53
2023-01-03T20:19:21.346Z,100689.56
2023-01-03T20:21:53.863Z,102475.48
2023-01-03T20:24:30.375Z,100693.73
2023-01-03T20:27:02.796Z,100694.34
2023-01-03T20:29:35.236Z,100688.67
2023-01-03T20:32:07.666Z,100698.11
2023-01-03T20:34:40.007Z,100705.06
2023-01-03T20:37:18.223Z,100709.52
2023-01-03T20:39:52.234Z,100707.39
2023-01-03T20:42:25.064Z,100712.22
2023-01-03T20:44:58.774Z,100719.53
2023-01-03T20:47:31.212Z,100726.21
2023-01-03T20:50:03.888Z,100719.30
2023-01-03T20:52:36.388Z,100719.77
2023-01-03T20:55:10.264Z,100721.72
2023-01-03T20:57:43.182Z,100713.83
2023-01-03T21:00:25.480Z,100715.92
2023-01-03T21:02:58.612Z,100705.91
2023-01-03T21:05:31.264Z,100706.68
2023-01-03T21:08:22.134Z,100708.23
2023-01-03T21:10:54.570Z,100715.07
2023-01-03T21:13:27.175Z,100717.22
2023-01-03T21:15:59.672Z,100709.80
2023-01-03T21:18:32.384Z,100721.94
2023-01-03T21:21:07.377Z,100717.14
2023-01-03T21:23:40.374Z,100727.06
2023-01-03T21:26:12.842Z,100730.73
2023-01-03T21:28:45.399Z,100724.19
2023-01-03T21:31:22.602Z,100730.25
2023-01-03T21:33:55.215Z,100737.87
2023-01-03T21:36:33.212Z,100728.45
2023-01-03T21:39:05.726Z,100734.50
2023-01-03T21:41:39.907Z,100724.98
2023-01-03T21:44:12.241Z,100733.73
2023-01-03T21:46:44.853Z,100736.16
2023-01-03T21:49:17.433Z,100732.99
2023-01-03T21:51:50.581Z,100727.59
2023-01-03T21:54:23.378Z,100728.96
2023-01-03T21:56:55.830Z,100730.50
2023-01-03T21:59:29.015Z,100729.72
2023-01-03T22:02:19.785Z,100731.26
2023-01-03T22:04:52.237Z,100727.72
2023-01-03T22:07:24.742Z,100732.61
2023-01-03T22:10:15.642Z,100732.80
2023-01-03T22:12:53.640Z,100735.87
2023-01-03T22:15:26.587Z,100735.22
2023-01-03T22:17:59.488Z,100734.16
2023-01-03T22:20:38.144Z,100737.03
2023-01-03T22:23:08.544Z,100736.48
2023-01-03T22:25:42.074Z,100728.95
2023-01-03T22:28:14.420Z,100737.60
2023-01-03T22:30:46.993Z,100747.62
2023-01-03T22:33:19.312Z,100740.77
2023-01-03T22:35:52.215Z,100745.87
2023-01-03T22:38:24.621Z,100742.89
2023-01-03T22:40:57.659Z,100750.09
2023-01-03T22:43:30.115Z,100754.13
2023-01-03T22:46:04.271Z,100753.95
2023-01-03T22:48:37.602Z,100752.41
2023-01-03T22:51:13.112Z,100758.86
2023-01-03T22:53:48.195Z,100758.25
2023-01-03T22:56:20.911Z,100754.77
2023-01-03T22:58:53.259Z,100758.34
2023-01-03T23:01:28.339Z,100761.22
2023-01-03T23:04:03.423Z,100748.91
2023-01-03T23:06:36.226Z,100753.13
2023-01-03T23:09:09.174Z,100752.57
2023-01-03T23:11:59.680Z,100757.63
2023-01-03T23:14:32.718Z,100757.54
2023-01-03T23:17:22.797Z,100763.98
2023-01-03T23:19:55.197Z,100762.73
2023-01-03T23:22:27.625Z,100760.59
2023-01-03T23:25:00.133Z,100763.70
2023-01-03T23:27:32.817Z,100768.89
2023-01-03T23:30:05.817Z,100767.26
2023-01-03T23:32:38.501Z,100766.27
2023-01-03T23:35:12.148Z,100767.15
2023-01-03T23:37:44.448Z,100769.37
2023-01-03T23:40:16.965Z,100774.34
2023-01-03T23:42:49.752Z,100772.80
2023-01-03T23:45:22.642Z,100770.87
2023-01-03T23:47:55.423Z,100762.09
2023-01-03T23:50:27.802Z,100780.73
2023-01-03T23:53:00.657Z,100778.77
2023-01-03T23:55:33.255Z,100776.42
2023-01-03T23:58:06.550Z,100775.75
